Time;durP1;ratioP1;P1;durP2;ratioP2;P2;SDS_P1;SDS_P2;PMS_P1;PMS_P2;Temp;Humidity;BMP_temperature;BMP_pressure;BME280_temperature;BME280_humidity;BME280_pressure;Samples;Min_cycle;Max_cycle;Signal;HPM_P1;HPM_P2
2022/07/18 00:00:39;;;;;;;4.07;3.60;;;28.20;29.80;;;;;;5066486;28;45224;-73
2022/07/18 00:03:06;;;;;;;3.47;3.17;;;28.20;30.30;;;;;;5066735;28;45603;-74
2022/07/18 00:05:33;;;;;;;4.10;3.20;;;28.10;29.80;;;;;;5066718;28;45283;-74
2022/07/18 00:08:00;;;;;;;3.45;3.15;;;28.10;29.90;;;;;;5066095;28;45470;-74
2022/07/18 00:10:27;;;;;;;3.78;3.28;;;28.10;29.90;;;;;;5066350;28;45229;-74
2022/07/18 00:12:55;;;;;;;3.40;3.10;;;28.00;29.90;;;;;;5066444;28;45165;-74
2022/07/18 00:15:22;;;;;;;3.05;2.80;;;28.00;29.90;;;;;;5066571;28;45387;-74
2022/07/18 00:17:48;;;;;;;3.13;2.92;;;28.00;29.90;;;;;;5066189;28;45389;-74
2022/07/18 00:20:15;;;;;;;4.32;2.92;;;28.00;29.90;;;;;;5066077;28;45256;-74
2022/07/18 00:22:42;;;;;;;3.08;2.78;;;27.90;29.90;;;;;;5066145;28;45216;-73
2022/07/18 00:25:09;;;;;;;3.17;2.97;;;27.90;29.90;;;;;;5065635;28;45392;-74
2022/07/18 00:27:36;;;;;;;2.70;2.50;;;27.90;29.90;;;;;;5065984;28;45370;-74
2022/07/18 00:30:04;;;;;;;4.07;3.25;;;27.90;30.00;;;;;;5065806;28;45303;-74
2022/07/18 00:32:31;;;;;;;3.38;2.75;;;27.80;30.00;;;;;;5066000;28;45283;-74
2022/07/18 00:34:58;;;;;;;2.80;2.60;;;27.80;30.00;;;;;;5065763;28;45481;-74
2022/07/18 00:37:25;;;;;;;3.03;2.70;;;27.80;30.00;;;;;;5065657;28;46763;-74
2022/07/18 00:39:51;;;;;;;2.70;2.50;;;27.70;29.90;;;;;;5065994;28;45539;-74
2022/07/18 00:42:18;;;;;;;2.70;2.50;;;27.70;30.00;;;;;;5066083;28;45348;-74
2022/07/18 00:44:45;;;;;;;2.70;2.50;;;27.70;30.00;;;;;;5066922;28;45272;-74
2022/07/18 00:47:13;;;;;;;2.50;2.30;;;27.70;30.00;;;;;;5069394;28;46413;-74
2022/07/18 00:49:40;;;;;;;3.72;2.65;;;27.70;30.00;;;;;;5069186;28;45252;-74
2022/07/18 00:52:07;;;;;;;2.35;2.15;;;27.60;30.10;;;;;;5069400;28;45331;-73
2022/07/18 00:54:34;;;;;;;2.42;2.33;;;27.60;30.10;;;;;;5069862;28;45462;-74
2022/07/18 00:57:01;;;;;;;2.72;2.53;;;27.60;30.20;;;;;;5069175;28;45522;-74
2022/07/18 01:01:42;;;;;;;2.60;2.40;;;27.50;30.10;;;;;;5069101;28;45196;-74
2022/07/18 01:02:15;;;;;;;2.53;2.33;;;27.50;30.10;;;;;;5068999;28;45228;-74
2022/07/18 01:04:42;;;;;;;2.20;2.10;;;27.50;30.20;;;;;;5069365;28;45233;-74
2022/07/18 01:07:09;;;;;;;2.50;2.30;;;27.50;30.50;;;;;;5069002;28;45382;-74
2022/07/18 01:10:04;;;;;;;2.05;1.95;;;27.50;30.30;;;;;;5069086;28;45296;-74
2022/07/18 01:12:31;;;;;;;2.60;2.40;;;27.40;30.20;;;;;;5069054;28;45303;-74
2022/07/18 01:14:58;;;;;;;2.28;2.08;;;27.40;30.90;;;;;;5069262;28;45186;-74
2022/07/18 01:18:03;;;;;;;2.30;2.20;;;27.40;30.40;;;;;;5068925;28;46431;-74
2022/07/18 01:20:32;;;;;;;2.20;2.10;;;27.30;30.50;;;;;;5068835;28;45222;-73
2022/07/18 01:22:59;;;;;;;2.05;1.95;;;27.30;30.30;;;;;;5068864;28;45288;-74
2022/07/18 01:25:25;;;;;;;2.63;2.00;;;27.30;30.40;;;;;;5069026;28;45289;-74
2022/07/18 01:27:52;;;;;;;2.13;2.00;;;27.30;30.50;;;;;;5068614;28;47424;-74
2022/07/18 01:30:19;;;;;;;2.00;1.90;;;27.30;30.50;;;;;;5068626;28;45210;-73
2022/07/18 01:32:47;;;;;;;2.10;2.00;;;27.20;30.60;;;;;;5068616;28;45196;-74
2022/07/18 01:35:13;;;;;;;2.20;2.08;;;27.20;30.50;;;;;;5068098;28;45407;-74
2022/07/18 01:37:42;;;;;;;2.03;1.90;;;27.20;30.70;;;;;;5067842;28;45311;-74
2022/07/18 01:40:09;;;;;;;2.10;2.00;;;27.20;30.60;;;;;;5068526;28;45296;-74
2022/07/18 01:42:36;;;;;;;2.20;2.10;;;27.20;30.70;;;;;;5068638;28;45233;-73
2022/07/18 01:45:04;;;;;;;2.30;1.67;;;27.10;30.50;;;;;;5068698;28;45413;-74
2022/07/18 01:47:30;;;;;;;1.90;1.80;;;27.10;30.70;;;;;;5068355;28;45244;-73
2022/07/18 01:49:57;;;;;;;1.88;1.77;;;27.10;30.60;;;;;;5068321;28;45218;-74
2022/07/18 01:52:24;;;;;;;1.90;1.80;;;27.00;30.60;;;;;;5068445;28;45146;-74
2022/07/18 01:54:52;;;;;;;3.25;2.78;;;27.00;30.70;;;;;;5068570;28;45184;-74
2022/07/18 01:57:19;;;;;;;2.28;2.08;;;27.00;30.60;;;;;;5068007;28;45473;-74
2022/07/18 01:59:46;;;;;;;2.30;2.00;;;27.00;30.80;;;;;;5068166;28;45392;-74
2022/07/18 02:02:13;;;;;;;1.73;1.63;;;27.00;30.70;;;;;;5068425;28;45180;-74
2022/07/18 02:07:24;;;;;;;1.80;1.70;;;26.90;30.70;;;;;;5065406;28;45964;-74
2022/07/18 02:09:52;;;;;;;1.80;1.70;;;26.90;30.70;;;;;;5067956;28;45192;-74
2022/07/18 02:12:19;;;;;;;2.50;1.73;;;26.90;30.70;;;;;;5068228;28;45367;-74
2022/07/18 02:14:45;;;;;;;1.73;1.63;;;26.90;30.80;;;;;;5068297;28;45315;-73
2022/07/18 02:17:12;;;;;;;1.80;1.67;;;26.90;30.80;;;;;;5067646;28;46503;-74
2022/07/18 02:19:39;;;;;;;2.05;1.85;;;26.80;30.80;;;;;;5067693;28;45150;-74
2022/07/18 02:22:06;;;;;;;1.88;1.77;;;26.80;30.90;;;;;;5068144;28;45288;-74
2022/07/18 02:24:33;;;;;;;1.67;1.58;;;26.80;30.90;;;;;;5068130;28;45453;-74
2022/07/18 02:27:01;;;;;;;1.70;1.60;;;26.70;31.00;;;;;;5066874;28;45682;-74
2022/07/18 02:29:28;;;;;;;1.88;1.77;;;26.70;30.90;;;;;;5067201;28;45195;-74
2022/07/18 02:31:54;;;;;;;1.83;1.73;;;26.70;30.90;;;;;;5067826;28;45144;-74
2022/07/18 02:34:21;;;;;;;2.00;1.50;;;26.70;31.00;;;;;;5067718;28;45209;-73
2022/07/18 02:36:50;;;;;;;1.85;1.75;;;26.70;30.90;;;;;;5067758;28;45326;-74
2022/07/18 02:39:17;;;;;;;1.70;1.60;;;26.70;30.90;;;;;;5067523;28;45299;-73
2022/07/18 02:41:44;;;;;;;2.00;1.90;;;26.70;30.90;;;;;;5067789;28;45283;-73
2022/07/18 02:44:21;;;;;;;1.95;1.85;;;26.60;30.90;;;;;;5067602;28;45272;-73
2022/07/18 02:46:48;;;;;;;1.70;1.60;;;26.60;31.00;;;;;;5067288;28;45294;-73
2022/07/18 02:49:27;;;;;;;1.67;1.58;;;26.60;31.00;;;;;;5067414;28;45327;-73
2022/07/18 02:51:55;;;;;;;1.80;1.60;;;26.60;31.00;;;;;;5067572;28;45300;-73
2022/07/18 02:54:22;;;;;;;1.90;1.80;;;26.50;31.70;;;;;;5067689;28;45455;-74
2022/07/18 02:56:49;;;;;;;1.90;1.70;;;26.50;31.00;;;;;;5067419;28;46380;-73
2022/07/18 02:59:16;;;;;;;1.58;1.48;;;26.50;31.10;;;;;;5067161;28;45240;-73
2022/07/18 03:01:44;;;;;;;1.55;1.45;;;26.50;31.10;;;;;;5067306;28;45303;-73
2022/07/18 03:04:11;;;;;;;1.65;1.55;;;26.50;31.10;;;;;;5067525;28;45180;-73
2022/07/18 03:06:37;;;;;;;1.85;1.55;;;26.50;31.20;;;;;;5066929;28;47237;-74
2022/07/18 03:09:04;;;;;;;2.05;1.50;;;26.50;31.20;;;;;;5066095;28;45311;-73
2022/07/18 03:11:31;;;;;;;1.75;1.60;;;26.40;31.20;;;;;;5067260;28;45337;-74
2022/07/18 03:13:58;;;;;;;2.05;1.60;;;26.40;31.20;;;;;;5067230;28;45271;-74
2022/07/18 03:16:25;;;;;;;1.73;1.63;;;26.40;31.20;;;;;;5067094;28;46550;-74
2022/07/18 03:18:53;;;;;;;1.80;1.70;;;26.40;31.20;;;;;;5066885;28;45251;-72
2022/07/18 03:21:20;;;;;;;1.77;1.67;;;26.40;31.30;;;;;;5066414;28;45287;-72
2022/07/18 03:23:47;;;;;;;1.73;1.63;;;26.30;31.30;;;;;;5067135;28;45300;-74
2022/07/18 03:26:14;;;;;;;1.60;1.50;;;26.30;31.30;;;;;;5066729;28;46821;-74
2022/07/18 03:28:41;;;;;;;2.72;1.73;;;26.30;31.30;;;;;;5066780;28;45295;-73
2022/07/18 03:31:08;;;;;;;1.70;1.60;;;26.30;31.40;;;;;;5067081;28;45277;-74
2022/07/18 03:33:35;;;;;;;1.30;1.30;;;26.30;31.40;;;;;;5066899;28;45339;-73
2022/07/18 03:36:03;;;;;;;1.60;1.50;;;26.20;31.40;;;;;;5066652;28;46374;-74
2022/07/18 03:38:30;;;;;;;1.70;1.60;;;26.20;31.40;;;;;;5066641;28;45208;-73
2022/07/18 03:40:57;;;;;;;1.73;1.60;;;26.20;31.40;;;;;;5066960;27;45189;-73
2022/07/18 03:43:23;;;;;;;1.85;1.75;;;26.20;31.40;;;;;;5066863;28;45363;-74
2022/07/18 03:45:50;;;;;;;1.40;1.40;;;26.10;31.40;;;;;;5066589;28;46762;-74
2022/07/18 03:48:17;;;;;;;1.77;1.65;;;26.10;31.40;;;;;;5066517;28;45341;-74
2022/07/18 03:50:44;;;;;;;1.73;1.63;;;26.10;31.50;;;;;;5066898;28;45208;-73
2022/07/18 03:53:12;;;;;;;1.40;1.30;;;26.10;31.50;;;;;;5066965;28;45355;-74
2022/07/18 03:55:39;;;;;;;1.20;1.20;;;26.10;31.50;;;;;;5066956;28;45888;-74
2022/07/18 03:58:06;;;;;;;1.55;1.45;;;26.10;31.50;;;;;;5066432;28;45233;-74
2022/07/18 04:00:33;;;;;;;1.63;1.52;;;26.00;31.50;;;;;;5066461;28;45248;-73
2022/07/18 04:03:00;;;;;;;1.63;1.52;;;26.00;31.60;;;;;;5066949;28;45201;-73
2022/07/18 04:05:27;;;;;;;1.67;1.58;;;26.00;31.50;;;;;;5065582;28;47308;-74
2022/07/18 04:07:54;;;;;;;1.77;1.50;;;26.00;31.60;;;;;;5066280;28;45177;-74
2022/07/18 04:10:22;;;;;;;1.48;1.38;;;26.00;31.60;;;;;;5066504;28;45239;-74
2022/07/18 04:12:49;;;;;;;1.63;1.52;;;26.00;31.50;;;;;;5066601;28;45306;-74
2022/07/18 04:15:16;;;;;;;1.60;1.50;;;26.00;31.60;;;;;;5066335;28;45703;-74
2022/07/18 04:17:43;;;;;;;2.10;1.50;;;25.90;31.60;;;;;;5066240;28;45135;-73
2022/07/18 04:20:10;;;;;;;1.40;1.30;;;25.90;31.60;;;;;;5069094;28;45381;-73
2022/07/18 04:22:48;;;;;;;1.60;1.50;;;25.90;31.70;;;;;;5069978;28;45291;-74
2022/07/18 04:25:15;;;;;;;1.67;1.58;;;25.90;31.60;;;;;;5069522;28;46431;-73
2022/07/18 04:27:43;;;;;;;1.50;1.40;;;25.90;31.70;;;;;;5069799;28;45181;-74
2022/07/18 04:30:10;;;;;;;1.50;1.40;;;25.90;31.80;;;;;;5069487;28;45248;-73
2022/07/18 04:32:37;;;;;;;1.80;1.70;;;25.90;31.70;;;;;;5069631;28;45358;-74
2022/07/18 04:35:05;;;;;;;1.65;1.55;;;25.80;31.60;;;;;;5069403;28;45396;-73
2022/07/18 04:37:32;;;;;;;1.30;1.30;;;25.90;31.70;;;;;;5069650;28;45241;-73
2022/07/18 04:39:59;;;;;;;1.30;1.20;;;25.80;31.70;;;;;;5067071;28;45195;-73
2022/07/18 04:42:26;;;;;;;1.67;1.58;;;25.80;31.80;;;;;;5069848;28;45379;-73
2022/07/18 04:44:54;;;;;;;1.70;1.60;;;25.80;31.80;;;;;;5069351;28;46432;-73
2022/07/18 04:47:21;;;;;;;1.60;1.50;;;25.80;31.80;;;;;;5069261;28;45258;-73
2022/07/18 04:49:47;;;;;;;1.55;1.45;;;25.80;31.80;;;;;;5069516;28;45393;-73
2022/07/18 04:52:14;;;;;;;1.30;1.30;;;25.80;31.80;;;;;;5069631;28;45371;-73
2022/07/18 04:54:41;;;;;;;2.33;1.27;;;25.80;31.70;;;;;;5068581;28;46367;-73
2022/07/18 04:57:08;;;;;;;1.60;1.50;;;25.70;31.70;;;;;;5069396;28;45370;-73
2022/07/18 04:59:35;;;;;;;1.63;1.50;;;25.80;31.80;;;;;;5069399;28;45149;-73
2022/07/18 05:02:03;;;;;;;1.55;1.45;;;25.70;31.80;;;;;;5069504;28;45217;-73
2022/07/18 05:04:30;;;;;;;1.67;1.58;;;25.70;31.70;;;;;;5068769;28;45642;-74
2022/07/18 05:06:57;;;;;;;1.60;1.50;;;25.70;31.90;;;;;;5068925;28;46315;-73
2022/07/18 05:09:24;;;;;;;1.73;1.50;;;25.70;32.00;;;;;;5068934;28;45252;-74
2022/07/18 05:11:51;;;;;;;1.75;1.65;;;25.70;31.80;;;;;;5069363;28;45188;-73
2022/07/18 05:14:17;;;;;;;1.30;1.20;;;25.70;31.90;;;;;;5068876;28;47609;-73
2022/07/18 05:16:44;;;;;;;1.73;1.63;;;25.70;32.00;;;;;;5068951;28;45189;-74
2022/07/18 05:19:12;;;;;;;1.80;1.70;;;25.70;33.40;;;;;;5069207;28;45297;-74
2022/07/18 05:21:39;;;;;;;1.70;1.60;;;25.70;33.20;;;;;;5069384;28;45295;-74
2022/07/18 05:24:07;;;;;;;1.70;1.60;;;25.70;33.00;;;;;;5068662;28;46481;-74
2022/07/18 05:26:34;;;;;;;2.08;1.80;;;25.70;32.90;;;;;;5068902;28;45260;-74
2022/07/18 05:29:01;;;;;;;1.90;1.60;;;25.70;32.90;;;;;;5068747;28;45256;-73
2022/07/18 05:31:27;;;;;;;1.90;1.58;;;25.80;32.80;;;;;;5068117;28;45283;-73
2022/07/18 05:33:54;;;;;;;2.30;1.77;;;25.70;32.70;;;;;;5068395;28;45835;-73
2022/07/18 05:36:22;;;;;;;1.67;1.55;;;25.80;32.70;;;;;;5066063;28;45232;-73
2022/07/18 05:38:49;;;;;;;2.15;1.50;;;25.80;33.20;;;;;;5068620;28;45168;-73
2022/07/18 05:41:16;;;;;;;1.50;1.40;;;25.80;32.60;;;;;;5068130;28;45550;-74
2022/07/18 05:43:43;;;;;;;1.58;1.48;;;25.80;32.60;;;;;;5068540;28;45386;-74
2022/07/18 05:46:10;;;;;;;1.55;1.45;;;25.80;32.60;;;;;;5068491;28;45232;-73
2022/07/18 05:48:37;;;;;;;2.00;1.60;;;25.80;32.50;;;;;;5068493;28;45146;-73
2022/07/18 05:51:07;;;;;;;1.70;1.58;;;25.80;32.60;;;;;;5068746;28;45195;-73
2022/07/18 05:53:35;;;;;;;1.58;1.48;;;25.70;32.50;;;;;;5068296;28;45612;-73
2022/07/18 05:56:02;;;;;;;1.45;1.38;;;25.80;32.50;;;;;;5068285;28;45143;-73
2022/07/18 05:58:29;;;;;;;1.52;1.30;;;25.70;32.50;;;;;;5068383;28;45184;-73
2022/07/18 06:00:56;;;;;;;1.52;1.42;;;25.80;32.50;;;;;;5068578;28;45350;-73
2022/07/18 06:03:23;;;;;;;1.70;1.60;;;25.80;32.50;;;;;;5068023;28;45354;-73
2022/07/18 06:05:50;;;;;;;1.88;1.40;;;25.70;32.40;;;;;;5068389;28;45240;-73
2022/07/18 06:08:17;;;;;;;1.42;1.33;;;25.80;32.50;;;;;;5068275;28;45201;-74
2022/07/18 06:10:45;;;;;;;1.67;1.40;;;25.80;32.50;;;;;;5068414;28;45479;-73
2022/07/18 06:13:12;;;;;;;1.60;1.45;;;25.80;32.50;;;;;;5067953;28;45208;-73
2022/07/18 06:15:39;;;;;;;1.73;1.63;;;25.80;32.50;;;;;;5067751;28;45403;-74
2022/07/18 06:18:05;;;;;;;2.20;1.50;;;25.80;32.50;;;;;;5068140;28;45204;-74
2022/07/18 06:20:34;;;;;;;1.50;1.40;;;25.80;32.40;;;;;;5068235;28;45322;-74
2022/07/18 06:23:01;;;;;;;1.90;1.70;;;25.80;32.40;;;;;;5067981;28;46287;-74
2022/07/18 06:25:28;;;;;;;1.50;1.40;;;25.80;32.40;;;;;;5067590;28;45257;-74
2022/07/18 06:27:56;;;;;;;1.73;1.63;;;25.80;32.40;;;;;;5067488;28;45257;-74
2022/07/18 06:30:24;;;;;;;1.60;1.50;;;25.80;32.50;;;;;;5068056;28;45181;-74
2022/07/18 06:32:50;;;;;;;1.70;1.40;;;25.80;32.40;;;;;;5067438;28;46466;-74
2022/07/18 06:35:17;;;;;;;2.22;1.50;;;25.80;32.40;;;;;;5067138;28;45385;-74
2022/07/18 06:37:45;;;;;;;2.20;1.40;;;25.80;32.40;;;;;;5067816;28;45319;-74
2022/07/18 06:40:12;;;;;;;2.10;1.70;;;25.90;32.50;;;;;;5067864;28;45196;-74
2022/07/18 06:42:39;;;;;;;2.58;1.75;;;25.90;32.50;;;;;;5067542;28;46661;-74
2022/07/18 06:45:08;;;;;;;2.95;1.50;;;25.80;32.40;;;;;;5068078;28;45391;-75
2022/07/18 06:47:35;;;;;;;2.10;1.90;;;25.90;32.50;;;;;;5067966;28;45360;-75
2022/07/18 06:50:02;;;;;;;1.42;1.33;;;25.90;32.50;;;;;;5071624;28;45200;-74
2022/07/18 06:52:29;;;;;;;1.70;1.50;;;25.90;32.50;;;;;;5068002;28;45513;-73
2022/07/18 06:54:56;;;;;;;1.40;1.30;;;25.90;32.50;;;;;;5066467;28;45380;-74
2022/07/18 06:57:22;;;;;;;2.08;1.33;;;25.90;32.50;;;;;;5069412;28;45322;-73
2022/07/18 06:59:49;;;;;;;1.55;1.40;;;25.90;32.50;;;;;;5068099;28;45375;-74
2022/07/18 07:02:17;;;;;;;3.83;1.60;;;25.90;32.50;;;;;;5069021;28;45233;-73
2022/07/18 07:04:44;;;;;;;1.60;1.50;;;25.90;32.50;;;;;;5067980;28;45192;-74
2022/07/18 07:07:11;;;;;;;2.00;1.80;;;26.00;32.60;;;;;;5067708;28;45340;-73
2022/07/18 07:09:38;;;;;;;1.50;1.40;;;26.00;32.50;;;;;;5067994;28;45332;-73
2022/07/18 07:12:05;;;;;;;3.15;1.70;;;26.00;32.60;;;;;;5067545;28;46382;-73
2022/07/18 07:14:31;;;;;;;1.55;1.45;;;26.00;32.60;;;;;;5067227;28;45253;-75
2022/07/18 07:16:58;;;;;;;2.08;1.73;;;26.00;32.60;;;;;;5067881;28;45176;-74
2022/07/18 07:19:27;;;;;;;1.60;1.50;;;26.00;32.70;;;;;;5068496;28;45198;-74
2022/07/18 07:21:53;;;;;;;1.33;1.13;;;26.00;32.70;;;;;;5068612;28;46666;-74
2022/07/18 07:24:20;;;;;;;2.25;1.60;;;26.00;32.70;;;;;;5069910;28;45303;-74
2022/07/18 07:26:47;;;;;;;1.45;1.35;;;26.00;32.70;;;;;;5068476;28;45197;-73
2022/07/18 07:29:14;;;;;;;1.35;1.25;;;26.00;32.70;;;;;;5069623;28;45280;-73
2022/07/18 07:31:42;;;;;;;1.50;1.40;;;26.10;32.70;;;;;;5068760;28;46572;-74
2022/07/18 07:34:09;;;;;;;1.38;1.27;;;26.10;32.60;;;;;;5067549;28;45367;-73
2022/07/18 07:36:37;;;;;;;2.00;1.33;;;26.10;32.70;;;;;;5068047;28;45332;-74
2022/07/18 07:39:04;;;;;;;1.60;1.17;;;26.10;32.70;;;;;;5068171;28;45404;-74
2022/07/18 07:41:31;;;;;;;1.70;1.45;;;26.20;32.70;;;;;;5067384;28;46363;-74
2022/07/18 07:43:58;;;;;;;2.45;1.15;;;26.20;32.90;;;;;;5067889;28;45279;-73
2022/07/18 07:46:25;;;;;;;1.45;1.35;;;26.20;32.70;;;;;;5067341;28;45310;-73
2022/07/18 07:48:51;;;;;;;1.23;1.20;;;26.20;32.90;;;;;;5067331;28;45458;-73
2022/07/18 07:51:18;;;;;;;1.55;1.45;;;26.20;32.90;;;;;;5067320;28;46658;-73
2022/07/18 07:53:46;;;;;;;1.67;1.48;;;26.30;32.90;;;;;;5066996;28;45213;-74
2022/07/18 07:56:18;;;;;;;1.20;1.20;;;26.30;32.80;;;;;;5067984;28;45212;-73
2022/07/18 07:58:45;;;;;;;1.63;1.40;;;26.30;32.70;;;;;;5067596;28;45297;-73
2022/07/18 08:01:12;;;;;;;1.23;1.20;;;26.30;32.60;;;;;;5063825;28;46155;-73
2022/07/18 08:03:39;;;;;;;1.55;1.45;;;26.40;32.70;;;;;;5067549;28;45340;-74
2022/07/18 08:06:06;;;;;;;1.40;1.30;;;26.40;32.70;;;;;;5067538;28;45295;-75
2022/07/18 08:08:33;;;;;;;1.40;1.27;;;26.40;32.60;;;;;;5067712;28;45130;-73
2022/07/18 08:11:01;;;;;;;1.40;1.30;;;26.40;32.50;;;;;;5066983;28;45261;-73
2022/07/18 08:13:28;;;;;;;1.33;1.25;;;26.40;32.50;;;;;;5067221;28;45335;-74
2022/07/18 08:15:55;;;;;;;1.30;1.20;;;26.50;32.60;;;;;;5067635;28;45372;-74
2022/07/18 08:18:22;;;;;;;1.63;1.50;;;26.50;32.40;;;;;;5067723;28;45301;-74
2022/07/18 08:20:48;;;;;;;1.40;1.20;;;26.50;32.30;;;;;;5067326;28;45188;-74
2022/07/18 08:23:16;;;;;;;1.65;1.55;;;26.60;32.30;;;;;;5066973;28;45230;-74
2022/07/18 08:25:44;;;;;;;1.45;1.35;;;26.60;32.40;;;;;;5067315;28;45245;-74
2022/07/18 08:28:12;;;;;;;1.50;1.40;;;26.60;32.20;;;;;;5067441;28;45293;-73
2022/07/18 08:30:39;;;;;;;1.17;1.17;;;26.70;32.20;;;;;;5066477;28;46490;-74
2022/07/18 08:33:07;;;;;;;1.75;1.52;;;26.70;32.40;;;;;;5067044;28;45224;-73
2022/07/18 08:35:34;;;;;;;1.35;1.23;;;26.70;32.40;;;;;;5066402;28;45398;-74
2022/07/18 08:38:00;;;;;;;1.63;1.52;;;26.80;32.50;;;;;;5066997;28;45381;-73
2022/07/18 08:40:27;;;;;;;1.50;1.15;;;26.80;32.40;;;;;;5063983;28;46592;-73
2022/07/18 08:42:55;;;;;;;2.10;1.30;;;26.80;32.30;;;;;;5066997;28;45312;-73
2022/07/18 08:45:25;;;;;;;1.67;1.33;;;26.90;32.30;;;;;;5066495;28;45169;-73
2022/07/18 08:47:51;;;;;;;1.40;1.30;;;26.90;32.10;;;;;;5065543;28;45520;-73
2022/07/18 08:50:18;;;;;;;1.73;1.30;;;26.90;32.10;;;;;;5065755;28;45188;-74
2022/07/18 08:52:45;;;;;;;1.83;1.30;;;26.90;32.10;;;;;;5065798;28;45326;-73
2022/07/18 08:55:14;;;;;;;1.40;1.30;;;27.00;32.10;;;;;;5065615;28;45240;-73
2022/07/18 08:57:40;;;;;;;1.42;1.33;;;27.00;32.10;;;;;;5065904;28;45305;-74
2022/07/18 09:00:09;;;;;;;1.50;1.40;;;27.00;32.10;;;;;;5065424;28;45384;-73
2022/07/18 09:02:38;;;;;;;1.23;1.23;;;27.10;32.10;;;;;;5065570;28;45293;-74
2022/07/18 09:05:05;;;;;;;1.45;1.35;;;27.10;32.10;;;;;;5065716;28;45288;-73
2022/07/18 09:07:34;;;;;;;3.05;1.40;;;27.10;32.40;;;;;;5068901;28;45295;-73
2022/07/18 09:10:02;;;;;;;1.70;1.60;;;27.20;32.70;;;;;;5068740;28;46688;-73
2022/07/18 09:12:30;;;;;;;1.77;1.67;;;27.20;33.20;;;;;;5066121;28;45373;-72
2022/07/18 09:14:58;;;;;;;2.30;2.10;;;27.30;33.60;;;;;;5069156;28;45416;-74
2022/07/18 09:17:26;;;;;;;3.58;2.58;;;27.30;34.00;;;;;;5069123;28;45228;-73
2022/07/18 09:20:01;;;;;;;5.10;3.22;;;27.40;34.40;;;;;;5068579;28;45312;-72
2022/07/18 09:22:30;;;;;;;3.40;2.83;;;27.40;34.50;;;;;;5068865;28;45391;-73
2022/07/18 09:25:01;;;;;;;3.25;2.95;;;27.50;34.60;;;;;;5068702;28;45303;-74
2022/07/18 09:27:34;;;;;;;3.85;3.10;;;27.50;34.60;;;;;;5068947;28;45441;-74
2022/07/18 09:30:20;;;;;;;5.10;3.08;;;27.60;34.80;;;;;;5068465;28;46711;-74
2022/07/18 09:32:47;;;;;;;5.15;3.40;;;27.60;34.90;;;;;;5068269;28;45275;-74
2022/07/18 09:35:17;;;;;;;4.65;3.65;;;27.70;34.80;;;;;;5068235;28;45465;-75
2022/07/18 09:37:56;;;;;;;6.25;3.53;;;27.70;34.80;;;;;;5068962;28;45528;-74
2022/07/18 09:40:24;;;;;;;5.30;4.05;;;27.70;35.00;;;;;;5068434;28;47603;-75
2022/07/18 09:42:51;;;;;;;6.50;3.63;;;27.80;35.10;;;;;;5068324;28;45244;-74
2022/07/18 09:45:23;;;;;;;5.07;3.60;;;27.90;35.50;;;;;;5068509;28;45192;-73
2022/07/18 09:47:51;;;;;;;5.82;3.53;;;27.90;35.30;;;;;;5065338;28;45509;-74
2022/07/18 09:50:24;;;;;;;3.88;2.55;;;27.90;34.90;;;;;;5067870;28;46661;-73
2022/07/18 09:53:13;;;;;;;2.40;2.20;;;28.00;34.00;;;;;;5067180;28;45327;-74
2022/07/18 09:55:48;;;;;;;2.30;2.08;;;28.00;33.40;;;;;;5062225;28;45269;-74
2022/07/18 09:58:17;;;;;;;3.85;2.10;;;28.00;33.00;;;;;;5067043;28;45482;-73
2022/07/18 10:00:44;;;;;;;3.25;2.20;;;28.10;33.00;;;;;;5067072;28;47565;-74
2022/07/18 10:03:10;;;;;;;1.80;1.70;;;28.10;32.50;;;;;;5064177;28;45371;-74
2022/07/18 10:05:40;;;;;;;5.15;1.92;;;28.10;32.60;;;;;;5066830;28;45312;-74
2022/07/18 10:08:07;;;;;;;3.97;2.25;;;28.10;32.60;;;;;;5067028;28;45202;-74
2022/07/18 10:10:34;;;;;;;3.97;1.60;;;28.20;32.70;;;;;;5066668;28;45378;-74
2022/07/18 10:13:03;;;;;;;3.72;1.90;;;28.20;33.00;;;;;;5066856;28;45307;-73
2022/07/18 10:15:31;;;;;;;2.65;1.90;;;28.20;32.80;;;;;;5065259;28;45225;-73
2022/07/18 10:17:58;;;;;;;5.75;2.55;;;28.30;32.70;;;;;;5066259;28;45490;-74
2022/07/18 10:20:29;;;;;;;3.70;2.03;;;28.40;32.70;;;;;;5065725;28;46814;-74
2022/07/18 10:23:00;;;;;;;2.00;1.75;;;28.40;32.50;;;;;;5066265;28;45258;-74
2022/07/18 10:25:27;;;;;;;1.63;1.52;;;28.40;32.40;;;;;;5066193;28;45312;-75
2022/07/18 10:27:55;;;;;;;3.42;1.67;;;28.50;32.10;;;;;;5066609;28;45494;-74
2022/07/18 10:30:37;;;;;;;2.05;1.90;;;28.60;32.00;;;;;;5066091;28;45478;-74
2022/07/18 10:33:04;;;;;;;3.90;2.33;;;28.60;31.50;;;;;;5064333;28;45149;-74
2022/07/18 10:36:03;;;;;;;3.08;1.90;;;28.70;31.70;;;;;;5066207;28;45365;-73
2022/07/18 10:38:31;;;;;;;3.00;1.73;;;28.70;31.40;;;;;;5066190;28;45445;-74
2022/07/18 10:41:05;;;;;;;2.22;1.70;;;28.70;31.40;;;;;;5066281;28;45239;-73
2022/07/18 10:43:33;;;;;;;2.15;1.77;;;28.70;31.30;;;;;;5066350;28;45256;-73
2022/07/18 10:46:00;;;;;;;4.72;2.00;;;28.80;31.10;;;;;;5066246;28;45212;-73
2022/07/18 10:49:03;;;;;;;1.90;1.70;;;28.90;30.90;;;;;;5066609;28;45402;-74
2022/07/18 10:51:32;;;;;;;2.47;1.58;;;29.00;30.30;;;;;;5066121;28;46582;-73
2022/07/18 10:54:10;;;;;;;2.20;1.63;;;29.00;29.90;;;;;;5066259;28;45189;-73
2022/07/18 10:57:08;;;;;;;7.13;1.67;;;29.10;30.00;;;;;;5066617;28;45288;-73
2022/07/18 10:59:35;;;;;;;5.28;2.20;;;29.10;29.80;;;;;;5066345;28;45253;-73
2022/07/18 11:02:02;;;;;;;3.90;1.95;;;29.10;29.70;;;;;;5065705;28;46565;-74
2022/07/18 11:04:30;;;;;;;3.92;2.03;;;29.20;29.80;;;;;;5065392;28;45243;-73
2022/07/18 11:07:03;;;;;;;3.17;1.92;;;29.30;29.90;;;;;;5066029;28;45351;-74
2022/07/18 11:09:32;;;;;;;5.75;1.77;;;29.30;30.00;;;;;;5066348;28;45339;-74
2022/07/18 11:12:19;;;;;;;1.65;1.55;;;29.40;30.00;;;;;;5065858;28;46614;-74
2022/07/18 11:15:10;;;;;;;2.00;1.80;;;29.50;30.00;;;;;;5065725;28;45231;-73
2022/07/18 11:18:01;;;;;;;3.83;1.77;;;29.60;29.90;;;;;;5066104;28;45224;-74
2022/07/18 11:20:36;;;;;;;1.83;1.70;;;29.60;29.80;;;;;;5065920;28;45190;-73
2022/07/18 11:23:04;;;;;;;1.80;1.70;;;29.70;29.50;;;;;;5065575;28;45287;-73
2022/07/18 11:25:32;;;;;;;1.88;1.55;;;29.80;29.70;;;;;;5065668;28;45425;-74
2022/07/18 11:27:59;;;;;;;2.10;1.75;;;29.90;29.60;;;;;;5065367;28;45250;-73
2022/07/18 11:30:26;;;;;;;3.75;1.98;;;29.90;29.40;;;;;;5065660;28;45414;-73
2022/07/18 11:32:53;;;;;;;2.65;1.88;;;29.90;29.60;;;;;;5065002;28;46666;-74
2022/07/18 11:35:24;;;;;;;1.65;1.55;;;30.00;29.40;;;;;;5064589;28;45631;-73
2022/07/18 11:37:51;;;;;;;2.60;1.50;;;30.10;29.40;;;;;;5065764;28;45331;-74
2022/07/18 11:40:18;;;;;;;4.07;2.20;;;30.10;29.30;;;;;;5056607;28;45339;-74
2022/07/18 11:42:47;;;;;;;1.83;1.73;;;30.20;29.30;;;;;;5058253;28;46366;-73
2022/07/18 11:45:14;;;;;;;2.30;1.92;;;30.30;29.30;;;;;;5059385;28;45391;-74
2022/07/18 11:47:46;;;;;;;2.00;1.70;;;30.30;29.10;;;;;;5063609;28;45134;-73
2022/07/18 11:50:12;;;;;;;3.05;1.83;;;30.50;28.80;;;;;;5065235;28;45542;-73
2022/07/18 11:52:39;;;;;;;2.97;1.80;;;30.60;28.80;;;;;;5064051;28;45604;-72
2022/07/18 11:55:07;;;;;;;1.85;1.75;;;30.60;29.30;;;;;;5056004;28;45378;-74
2022/07/18 11:57:34;;;;;;;4.45;1.80;;;30.80;29.50;;;;;;5044628;28;45272;-73
2022/07/18 12:00:14;;;;;;;5.45;2.40;;;30.80;29.20;;;;;;5044745;28;45332;-72
2022/07/18 12:02:41;;;;;;;4.30;1.90;;;30.90;29.50;;;;;;5044346;28;46752;-73
2022/07/18 12:05:08;;;;;;;1.88;1.60;;;30.90;29.00;;;;;;5044613;28;45245;-75
2022/07/18 12:07:35;;;;;;;1.70;1.60;;;31.00;28.90;;;;;;5044445;28;45616;-73
2022/07/18 12:10:15;;;;;;;2.88;1.73;;;31.10;28.80;;;;;;5059662;28;45432;-73
2022/07/18 12:12:42;;;;;;;1.70;1.60;;;31.20;29.10;;;;;;5064172;28;45471;-73
2022/07/18 12:15:11;;;;;;;3.58;1.77;;;31.30;27.90;;;;;;5064289;28;45272;-74
2022/07/18 12:17:44;;;;;;;2.53;1.63;;;31.30;28.00;;;;;;5063657;28;45433;-76
2022/07/18 12:20:12;;;;;;;3.10;1.83;;;31.40;28.30;;;;;;5065042;28;45288;-73
2022/07/18 12:23:07;;;;;;;4.85;1.70;;;31.50;28.20;;;;;;5062483;28;45458;-73
2022/07/18 12:25:55;;;;;;;2.63;1.77;;;31.60;28.40;;;;;;5064185;28;45347;-74
2022/07/18 12:28:22;;;;;;;2.85;1.60;;;31.60;28.10;;;;;;5064556;28;45197;-75
2022/07/18 12:30:50;;;;;;;1.70;1.60;;;31.70;28.00;;;;;;5044417;28;45238;-75
2022/07/18 12:33:17;;;;;;;1.67;1.55;;;31.70;27.70;;;;;;5044642;28;46502;-73
2022/07/18 12:35:44;;;;;;;3.33;1.77;;;31.80;28.10;;;;;;5048238;28;45437;-72
2022/07/18 12:38:12;;;;;;;2.03;1.42;;;31.90;28.00;;;;;;5065345;28;45382;-74
2022/07/18 12:40:41;;;;;;;2.42;1.58;;;32.00;27.80;;;;;;5064465;28;45256;-74
2022/07/18 12:43:08;;;;;;;3.42;1.33;;;32.00;27.40;;;;;;5068167;28;46423;-74
2022/07/18 12:45:35;;;;;;;3.83;1.58;;;32.10;27.60;;;;;;5068529;27;45282;-73
2022/07/18 12:48:05;;;;;;;2.22;1.52;;;32.20;27.30;;;;;;5068350;28;45177;-73
2022/07/18 12:50:32;;;;;;;2.30;1.85;;;32.20;27.70;;;;;;5068681;28;45368;-73
2022/07/18 12:52:59;;;;;;;2.15;1.50;;;32.30;27.40;;;;;;5068700;28;45255;-74
2022/07/18 12:55:25;;;;;;;2.92;1.52;;;32.40;27.40;;;;;;5069140;28;45394;-73
2022/07/18 12:57:52;;;;;;;1.95;1.85;;;32.40;26.60;;;;;;5068554;28;45213;-73